Time;durP1;ratioP1;P1;durP2;ratioP2;P2;SDS_P1;SDS_P2;PMS_P1;PMS_P2;Temp;Humidity;BMP_temperature;BMP_pressure;BME280_temperature;BME280_humidity;BME280_pressure;Samples;Min_cycle;Max_cycle;Signal;HPM_P1;HPM_P2
2022/08/22 00:00:34;;;;;;;60.77;4.33;;;;;;;;;;5116495;28;20445;-67
2022/08/22 00:03:12;;;;;;;60.07;4.13;;;;;;;;;;5116193;28;20493;-67
2022/08/22 00:05:45;;;;;;;59.50;4.13;;;;;;;;;;5116317;28;20520;-67
2022/08/22 00:08:15;;;;;;;61.93;4.37;;;;;;;;;;5115649;28;20453;-67
2022/08/22 00:10:50;;;;;;;61.20;4.43;;;;;;;;;;5115336;28;20457;-67
2022/08/22 00:13:21;;;;;;;59.37;3.70;;;;;;;;;;5116268;28;20464;-67
2022/08/22 00:15:54;;;;;;;59.90;4.27;;;;;;;;;;5115975;28;20941;-67
2022/08/22 00:18:25;;;;;;;59.90;4.40;;;;;;;;;;5115642;28;20449;-67
2022/08/22 00:20:58;;;;;;;60.17;3.80;;;;;;;;;;5115518;28;20456;-67
2022/08/22 00:23:28;;;;;;;60.67;4.57;;;;;;;;;;5115342;28;20970;-67
2022/08/22 00:25:56;;;;;;;60.77;4.43;;;;;;;;;;5115474;28;20445;-67
2022/08/22 00:28:27;;;;;;;60.00;3.83;;;;;;;;;;5115252;28;20449;-67
2022/08/22 00:30:58;;;;;;;61.83;4.17;;;;;;;;;;5115638;28;20442;-67
2022/08/22 00:33:28;;;;;;;60.03;4.07;;;;;;;;;;5115252;28;20461;-68
2022/08/22 00:36:03;;;;;;;60.40;4.07;;;;;;;;;;5115301;28;20438;-67
2022/08/22 00:38:32;;;;;;;59.50;4.00;;;;;;;;;;5114386;28;20549;-67
2022/08/22 00:41:02;;;;;;;59.97;4.23;;;;;;;;;;5115114;28;20452;-67
2022/08/22 00:43:50;;;;;;;59.40;3.70;;;;;;;;;;5114972;28;20466;-68
2022/08/22 00:46:31;;;;;;;63.27;5.20;;;;;;;;;;5114987;28;20857;-67
2022/08/22 00:49:11;;;;;;;62.57;4.97;;;;;;;;;;5114809;28;20820;-68
2022/08/22 00:51:55;;;;;;;60.27;4.37;;;;;;;;;;5114693;28;20473;-67
2022/08/22 00:54:29;;;;;;;60.37;4.00;;;;;;;;;;5114756;28;20453;-68
2022/08/22 00:57:11;;;;;;;61.37;4.50;;;;;;;;;;5115077;28;20478;-67
2022/08/22 00:59:46;;;;;;;59.40;3.90;;;;;;;;;;5114436;28;20480;-67
2022/08/22 01:02:23;;;;;;;59.43;4.03;;;;;;;;;;5114419;28;20471;-67
2022/08/22 01:05:01;;;;;;;60.27;4.40;;;;;;;;;;5114169;28;20445;-67
2022/08/22 01:07:45;;;;;;;60.00;4.30;;;;;;;;;;5114673;28;20481;-68
2022/08/22 01:10:19;;;;;;;60.60;4.40;;;;;;;;;;5114058;28;20438;-67
2022/08/22 01:12:53;;;;;;;60.30;4.50;;;;;;;;;;5114343;28;20471;-67
2022/08/22 01:15:23;;;;;;;60.17;4.13;;;;;;;;;;5114462;28;20440;-67
2022/08/22 01:17:59;;;;;;;60.50;4.60;;;;;;;;;;5114096;28;20497;-67
2022/08/22 01:20:41;;;;;;;60.60;4.50;;;;;;;;;;5113967;28;20568;-67
2022/08/22 01:23:33;;;;;;;65.97;4.53;;;;;;;;;;5114357;28;20471;-67
2022/08/22 01:26:18;;;;;;;60.07;4.23;;;;;;;;;;5114036;28;20456;-67
2022/08/22 01:29:03;;;;;;;61.87;4.63;;;;;;;;;;5113583;28;20446;-67
2022/08/22 01:31:51;;;;;;;60.00;4.30;;;;;;;;;;5113974;28;20468;-68
2022/08/22 01:34:29;;;;;;;59.90;4.53;;;;;;;;;;5107574;28;20464;-67
2022/08/22 01:37:05;;;;;;;61.73;5.20;;;;;;;;;;5114016;28;20460;-68
2022/08/22 01:39:42;;;;;;;59.80;4.10;;;;;;;;;;5113582;28;20485;-68
2022/08/22 01:42:36;;;;;;;65.13;5.33;;;;;;;;;;5113748;28;20463;-67
2022/08/22 01:45:33;;;;;;;60.50;4.77;;;;;;;;;;5066013;27;20987;-67
2022/08/22 01:48:05;;;;;;;60.70;4.63;;;;;;;;;;5070079;28;20482;-67
2022/08/22 01:50:37;;;;;;;61.40;4.30;;;;;;;;;;5069436;28;20447;-67
2022/08/22 01:53:06;;;;;;;60.90;5.30;;;;;;;;;;5070432;28;20483;-67
2022/08/22 01:55:37;;;;;;;59.93;4.10;;;;;;;;;;5070591;28;20450;-68
2022/08/22 01:58:14;;;;;;;60.47;4.17;;;;;;;;;;5070398;28;20554;-67
2022/08/22 02:00:55;;;;;;;61.60;4.20;;;;;;;;;;5070216;28;20483;-68
2022/08/22 02:03:25;;;;;;;60.40;5.10;;;;;;;;;;5070385;28;20473;-67
2022/08/22 02:05:59;;;;;;;59.97;4.20;;;;;;;;;;5070490;28;20459;-67
2022/08/22 02:08:30;;;;;;;60.30;4.50;;;;;;;;;;5070266;28;20455;-67
2022/08/22 02:11:00;;;;;;;60.67;4.40;;;;;;;;;;5070207;28;20448;-67
2022/08/22 02:13:50;;;;;;;61.87;5.00;;;;;;;;;;5070256;28;20467;-68
2022/08/22 02:16:20;;;;;;;60.80;4.80;;;;;;;;;;5070150;28;20457;-67
2022/08/22 02:18:55;;;;;;;64.37;4.50;;;;;;;;;;5086075;28;20446;-68
2022/08/22 02:21:27;;;;;;;61.33;4.80;;;;;;;;;;5113156;28;20455;-68
2022/08/22 02:23:56;;;;;;;62.10;4.83;;;;;;;;;;5113344;28;20532;-68
2022/08/22 02:26:25;;;;;;;63.33;4.30;;;;;;;;;;5113107;28;20468;-67
2022/08/22 02:28:57;;;;;;;63.00;5.37;;;;;;;;;;5112616;28;20563;-68
2022/08/22 02:31:26;;;;;;;61.03;4.43;;;;;;;;;;5112664;28;20442;-68
2022/08/22 02:33:56;;;;;;;60.70;4.60;;;;;;;;;;5112906;28;20448;-68
2022/08/22 02:36:26;;;;;;;61.07;4.97;;;;;;;;;;5112627;28;20453;-68
2022/08/22 02:38:58;;;;;;;61.00;5.00;;;;;;;;;;5112324;28;20445;-68
2022/08/22 02:41:27;;;;;;;60.57;4.67;;;;;;;;;;5112666;28;20446;-67
2022/08/22 02:43:57;;;;;;;60.70;4.70;;;;;;;;;;5112542;28;20446;-68
2022/08/22 02:46:28;;;;;;;63.10;5.60;;;;;;;;;;5112803;28;20445;-67
2022/08/22 02:49:00;;;;;;;61.33;5.00;;;;;;;;;;5112455;28;20445;-68
2022/08/22 02:51:34;;;;;;;64.47;4.67;;;;;;;;;;5112614;28;20470;-68
2022/08/22 02:54:07;;;;;;;65.30;5.63;;;;;;;;;;5112633;28;20464;-67
2022/08/22 02:56:38;;;;;;;60.13;4.17;;;;;;;;;;5112480;28;20445;-68
2022/08/22 02:59:15;;;;;;;64.23;5.80;;;;;;;;;;5112494;28;20453;-67
2022/08/22 03:01:43;;;;;;;60.00;4.43;;;;;;;;;;5116530;28;20562;-67
2022/08/22 03:04:37;;;;;;;61.57;5.00;;;;;;;;;;5119230;28;20444;-68
2022/08/22 03:07:13;;;;;;;64.00;6.03;;;;;;;;;;5119666;28;20527;-68
2022/08/22 03:09:42;;;;;;;65.43;5.80;;;;;;;;;;5119180;28;20515;-67
2022/08/22 03:12:15;;;;;;;61.73;5.00;;;;;;;;;;5119489;28;20767;-69
2022/08/22 03:14:46;;;;;;;60.87;4.90;;;;;;;;;;5119334;28;20445;-68
2022/08/22 03:17:16;;;;;;;61.00;4.80;;;;;;;;;;5119029;28;20445;-67
2022/08/22 03:19:49;;;;;;;60.87;5.43;;;;;;;;;;5119175;28;20477;-68
2022/08/22 03:22:21;;;;;;;62.70;4.53;;;;;;;;;;5119053;27;20474;-68
2022/08/22 03:24:51;;;;;;;63.83;5.93;;;;;;;;;;5119127;28;20532;-68
2022/08/22 03:27:20;;;;;;;60.70;4.73;;;;;;;;;;5119146;28;20548;-67
2022/08/22 03:29:50;;;;;;;60.47;4.50;;;;;;;;;;5118524;28;20440;-68
2022/08/22 03:32:19;;;;;;;64.20;6.13;;;;;;;;;;5119179;28;20464;-68
2022/08/22 03:35:00;;;;;;;62.07;4.60;;;;;;;;;;5118880;28;20536;-68
2022/08/22 03:37:37;;;;;;;60.37;4.70;;;;;;;;;;5119015;28;20528;-68
2022/08/22 03:40:07;;;;;;;60.57;4.60;;;;;;;;;;5118466;28;20472;-68
2022/08/22 03:42:58;;;;;;;62.50;5.07;;;;;;;;;;5119278;28;20475;-68
2022/08/22 03:45:44;;;;;;;61.47;4.50;;;;;;;;;;5098826;27;20449;-68
2022/08/22 03:48:21;;;;;;;61.60;4.20;;;;;;;;;;5118878;28;20441;-68
2022/08/22 03:50:57;;;;;;;61.17;5.10;;;;;;;;;;5118603;28;20478;-68
2022/08/22 03:53:33;;;;;;;60.27;4.63;;;;;;;;;;5118602;28;20563;-68
2022/08/22 03:56:32;;;;;;;61.60;5.50;;;;;;;;;;5118859;28;20445;-68
2022/08/22 03:59:14;;;;;;;60.80;5.07;;;;;;;;;;5118264;28;20528;-68
2022/08/22 04:01:57;;;;;;;61.07;4.80;;;;;;;;;;5118796;28;20467;-68
2022/08/22 04:04:42;;;;;;;62.73;5.13;;;;;;;;;;5118898;27;20455;-68
2022/08/22 04:07:26;;;;;;;60.03;4.27;;;;;;;;;;5118714;28;20441;-68
2022/08/22 04:10:06;;;;;;;59.77;4.37;;;;;;;;;;5118414;27;20741;-68
2022/08/22 04:12:49;;;;;;;59.90;4.30;;;;;;;;;;5116787;28;20461;-69
2022/08/22 04:15:44;;;;;;;59.90;4.47;;;;;;;;;;5115505;28;20449;-68
2022/08/22 04:18:24;;;;;;;61.80;4.53;;;;;;;;;;5115445;28;20441;-68
2022/08/22 04:21:03;;;;;;;60.87;4.83;;;;;;;;;;5114944;28;20496;-68
2022/08/22 04:23:43;;;;;;;61.60;4.77;;;;;;;;;;5115011;28;20973;-68
2022/08/22 04:26:14;;;;;;;60.20;4.10;;;;;;;;;;5115622;28;20441;-69
2022/08/22 04:28:44;;;;;;;62.03;4.60;;;;;;;;;;5114751;28;20452;-68
2022/08/22 04:31:12;;;;;;;61.90;5.63;;;;;;;;;;5114891;28;20449;-68
2022/08/22 04:33:43;;;;;;;65.50;4.53;;;;;;;;;;5115047;28;20464;-69
2022/08/22 04:36:13;;;;;;;59.77;4.53;;;;;;;;;;5115052;28;20446;-68
2022/08/22 04:38:42;;;;;;;60.67;5.00;;;;;;;;;;5114857;28;20541;-67
2022/08/22 04:41:13;;;;;;;60.60;5.37;;;;;;;;;;5114585;28;20481;-68
2022/08/22 04:43:45;;;;;;;63.80;4.83;;;;;;;;;;5114994;28;20528;-69
2022/08/22 04:46:16;;;;;;;60.77;4.83;;;;;;;;;;5114670;28;20953;-69
2022/08/22 04:48:45;;;;;;;61.83;5.07;;;;;;;;;;5114517;28;20463;-69
2022/08/22 04:51:16;;;;;;;60.60;4.77;;;;;;;;;;5114515;28;20451;-68
2022/08/22 04:53:51;;;;;;;63.70;5.60;;;;;;;;;;5114647;28;21003;-68
2022/08/22 04:56:23;;;;;;;60.53;4.97;;;;;;;;;;5114672;28;20492;-68
2022/08/22 04:58:54;;;;;;;60.40;4.10;;;;;;;;;;5114263;28;20441;-69
2022/08/22 05:01:24;;;;;;;61.10;4.60;;;;;;;;;;5114269;28;21016;-68
2022/08/22 05:03:54;;;;;;;60.37;4.93;;;;;;;;;;5114549;28;20460;-68
2022/08/22 05:06:22;;;;;;;62.30;5.77;;;;;;;;;;5114565;28;20537;-68
2022/08/22 05:08:50;;;;;;;61.53;4.83;;;;;;;;;;5114220;28;20828;-67
2022/08/22 05:11:20;;;;;;;61.77;4.80;;;;;;;;;;5114248;28;20532;-68
2022/08/22 05:13:48;;;;;;;63.03;4.90;;;;;;;;;;5114232;28;20534;-67
2022/08/22 05:16:18;;;;;;;59.97;4.50;;;;;;;;;;5114250;28;20441;-67
2022/08/22 05:18:47;;;;;;;69.70;5.47;;;;;;;;;;5113699;28;20824;-68
2022/08/22 05:21:15;;;;;;;62.80;4.90;;;;;;;;;;5113895;28;20910;-68
2022/08/22 05:23:44;;;;;;;62.53;5.23;;;;;;;;;;5113627;28;20988;-68
2022/08/22 05:26:13;;;;;;;60.80;4.93;;;;;;;;;;5113132;28;20454;-68
2022/08/22 05:28:42;;;;;;;60.27;4.43;;;;;;;;;;5113476;28;20450;-68
2022/08/22 05:31:10;;;;;;;60.37;4.60;;;;;;;;;;5113746;28;20487;-68
2022/08/22 05:33:41;;;;;;;60.20;4.50;;;;;;;;;;5114125;28;20826;-67
2022/08/22 05:36:11;;;;;;;60.33;4.80;;;;;;;;;;5113787;28;20536;-68
2022/08/22 05:38:39;;;;;;;59.80;4.50;;;;;;;;;;5113354;28;20444;-68
2022/08/22 05:41:08;;;;;;;62.50;5.03;;;;;;;;;;5113463;28;20477;-68
2022/08/22 05:43:37;;;;;;;61.70;5.20;;;;;;;;;;5113773;28;20450;-68
2022/08/22 05:46:08;;;;;;;62.93;5.20;;;;;;;;;;5113436;28;20445;-68
2022/08/22 05:48:40;;;;;;;62.07;4.80;;;;;;;;;;5113306;28;20485;-68
2022/08/22 05:51:14;;;;;;;61.27;4.87;;;;;;;;;;5113371;28;20534;-68
2022/08/22 05:53:44;;;;;;;59.90;4.50;;;;;;;;;;5113188;28;20458;-69
2022/08/22 05:56:13;;;;;;;64.30;5.50;;;;;;;;;;5113381;28;20448;-68
2022/08/22 05:58:46;;;;;;;61.13;4.70;;;;;;;;;;5112981;28;20452;-68
2022/08/22 06:01:21;;;;;;;59.57;4.53;;;;;;;;;;5113119;28;21026;-68
2022/08/22 06:03:55;;;;;;;61.50;5.47;;;;;;;;;;5113108;28;20438;-68
2022/08/22 06:06:25;;;;;;;60.27;4.40;;;;;;;;;;5113144;28;20989;-67
2022/08/22 06:08:58;;;;;;;60.40;4.33;;;;;;;;;;5113068;28;20445;-68
2022/08/22 06:11:28;;;;;;;61.17;5.80;;;;;;;;;;5112936;28;20448;-68
2022/08/22 06:14:01;;;;;;;62.00;4.80;;;;;;;;;;5112990;28;20449;-69
2022/08/22 06:16:33;;;;;;;61.87;4.93;;;;;;;;;;5112907;28;20454;-69
2022/08/22 06:19:00;;;;;;;61.30;5.63;;;;;;;;;;5113012;28;20461;-68
2022/08/22 06:21:31;;;;;;;61.10;5.23;;;;;;;;;;5112707;28;20528;-68
2022/08/22 06:23:59;;;;;;;60.53;4.90;;;;;;;;;;5112992;28;20442;-68
2022/08/22 06:26:28;;;;;;;61.27;4.90;;;;;;;;;;5112890;28;20446;-68
2022/08/22 06:28:57;;;;;;;61.20;5.10;;;;;;;;;;5112355;28;20449;-68
2022/08/22 06:31:27;;;;;;;59.80;4.50;;;;;;;;;;5112932;28;20532;-69
2022/08/22 06:33:56;;;;;;;60.80;4.50;;;;;;;;;;5112931;28;20535;-69
2022/08/22 06:36:33;;;;;;;65.20;5.40;;;;;;;;;;5112298;28;20449;-68
2022/08/22 06:39:08;;;;;;;60.37;5.10;;;;;;;;;;5112269;28;20452;-69
2022/08/22 06:41:40;;;;;;;62.43;5.47;;;;;;;;;;5112397;28;20485;-69
2022/08/22 06:44:07;;;;;;;60.30;4.73;;;;;;;;;;5112596;28;20446;-68
2022/08/22 06:46:36;;;;;;;59.73;4.07;;;;;;;;;;5112480;28;20453;-68
2022/08/22 06:49:04;;;;;;;59.67;4.43;;;;;;;;;;5112232;28;20452;-68
2022/08/22 06:51:32;;;;;;;60.10;4.50;;;;;;;;;;5112484;28;20487;-68
2022/08/22 06:54:01;;;;;;;59.60;4.23;;;;;;;;;;5112793;28;21086;-68
2022/08/22 06:56:32;;;;;;;62.33;5.00;;;;;;;;;;5112814;28;20445;-68
2022/08/22 06:59:01;;;;;;;59.90;4.40;;;;;;;;;;5112141;28;20818;-68
2022/08/22 07:01:32;;;;;;;59.50;3.90;;;;;;;;;;5112440;28;20576;-68
2022/08/22 07:04:00;;;;;;;59.40;4.03;;;;;;;;;;5112690;28;20449;-68
2022/08/22 07:06:30;;;;;;;59.93;3.73;;;;;;;;;;5112442;28;20536;-66
2022/08/22 07:08:57;;;;;;;61.17;4.23;;;;;;;;;;5112529;28;20544;-66
2022/08/22 07:11:26;;;;;;;59.40;3.90;;;;;;;;;;5112169;28;20449;-65
2022/08/22 07:13:56;;;;;;;59.30;3.60;;;;;;;;;;5112547;28;20554;-66
2022/08/22 07:16:28;;;;;;;62.40;4.57;;;;;;;;;;5112339;28;20446;-66
2022/08/22 07:18:56;;;;;;;59.57;3.63;;;;;;;;;;5111945;28;20445;-67
2022/08/22 07:21:24;;;;;;;61.90;4.40;;;;;;;;;;5112867;28;20889;-66
2022/08/22 07:23:52;;;;;;;60.17;3.73;;;;;;;;;;5112471;28;20448;-66
2022/08/22 07:26:22;;;;;;;59.30;3.40;;;;;;;;;;5112192;28;20451;-66
2022/08/22 07:28:51;;;;;;;58.87;4.00;;;;;;;;;;5112147;28;20440;-66
2022/08/22 07:31:35;;;;;;;60.10;3.70;;;;;;;;;;5112659;28;20533;-67
2022/08/22 07:34:08;;;;;;;61.50;3.60;;;;;;;;;;5112725;28;20943;-66
2022/08/22 07:36:38;;;;;;;60.87;3.93;;;;;;;;;;5113005;28;20472;-67
2022/08/22 07:39:23;;;;;;;60.10;4.03;;;;;;;;;;5112623;28;20446;-67
2022/08/22 07:41:58;;;;;;;59.00;3.80;;;;;;;;;;5112536;28;20673;-68
2022/08/22 07:44:28;;;;;;;59.97;4.13;;;;;;;;;;5112840;28;20462;-67
2022/08/22 07:46:57;;;;;;;60.73;3.83;;;;;;;;;;5113725;28;21114;-67
2022/08/22 07:49:27;;;;;;;58.87;3.60;;;;;;;;;;5116204;28;20974;-67
2022/08/22 07:51:56;;;;;;;63.10;5.27;;;;;;;;;;5116938;28;20464;-68
2022/08/22 07:54:25;;;;;;;60.57;3.93;;;;;;;;;;5116695;28;20465;-68
2022/08/22 07:56:56;;;;;;;59.37;4.20;;;;;;;;;;5117027;28;20457;-69
2022/08/22 07:59:25;;;;;;;60.80;4.17;;;;;;;;;;5116555;28;20990;-68
2022/08/22 08:01:54;;;;;;;58.63;3.80;;;;;;;;;;5116618;28;20487;-68
2022/08/22 08:04:23;;;;;;;60.03;4.57;;;;;;;;;;5117025;28;20638;-68
2022/08/22 08:06:53;;;;;;;59.43;3.50;;;;;;;;;;5116770;28;20476;-68
2022/08/22 08:09:21;;;;;;;60.00;4.40;;;;;;;;;;5116362;28;20892;-68
2022/08/22 08:11:50;;;;;;;59.37;3.70;;;;;;;;;;5117070;28;20553;-68
2022/08/22 08:14:18;;;;;;;60.30;4.30;;;;;;;;;;5116810;28;20451;-68
2022/08/22 08:16:56;;;;;;;59.50;4.00;;;;;;;;;;5116171;28;20452;-68
2022/08/22 08:19:24;;;;;;;59.43;3.93;;;;;;;;;;5116003;28;20452;-69
2022/08/22 08:21:53;;;;;;;60.20;4.00;;;;;;;;;;5116954;28;20860;-68
2022/08/22 08:24:22;;;;;;;58.77;3.57;;;;;;;;;;5116680;28;20473;-68
2022/08/22 08:29:37;;;;;;;59.20;3.77;;;;;;;;;;5116595;28;20413;-68
2022/08/22 08:32:06;;;;;;;59.87;4.10;;;;;;;;;;5116733;28;20460;-68
2022/08/22 08:34:33;;;;;;;59.83;4.07;;;;;;;;;;5115988;28;20452;-68
2022/08/22 08:37:05;;;;;;;59.67;4.77;;;;;;;;;;5115613;28;20816;-68
2022/08/22 08:39:35;;;;;;;60.10;3.70;;;;;;;;;;5115773;28;20532;-67
2022/08/22 08:42:09;;;;;;;59.20;4.03;;;;;;;;;;5115546;28;20493;-68
2022/08/22 08:44:48;;;;;;;59.47;4.03;;;;;;;;;;5115939;28;20963;-67
2022/08/22 08:47:27;;;;;;;58.97;4.07;;;;;;;;;;5116210;28;20793;-68
2022/08/22 08:50:00;;;;;;;59.10;3.70;;;;;;;;;;5116621;28;20536;-67
2022/08/22 08:52:51;;;;;;;59.20;4.03;;;;;;;;;;5116028;28;20484;-66
2022/08/22 08:55:26;;;;;;;59.97;3.97;;;;;;;;;;5115018;28;20441;-68
2022/08/22 08:58:02;;;;;;;59.77;3.77;;;;;;;;;;5116199;28;20536;-68
2022/08/22 09:00:33;;;;;;;59.70;3.83;;;;;;;;;;5115169;28;20445;-66
2022/08/22 09:03:08;;;;;;;59.70;4.60;;;;;;;;;;5115463;28;20588;-65
2022/08/22 09:05:51;;;;;;;59.97;3.83;;;;;;;;;;5115609;28;21031;-66
2022/08/22 09:08:46;;;;;;;58.70;4.07;;;;;;;;;;5116048;28;21069;-66
2022/08/22 09:11:34;;;;;;;60.20;3.90;;;;;;;;;;5115370;28;20433;-66
2022/08/22 09:14:11;;;;;;;60.03;3.80;;;;;;;;;;5081590;27;20537;-66
2022/08/22 09:16:51;;;;;;;60.20;3.90;;;;;;;;;;5116146;28;20541;-66
2022/08/22 09:19:30;;;;;;;59.17;3.97;;;;;;;;;;5115755;28;20536;-66
2022/08/22 09:22:24;;;;;;;60.47;4.27;;;;;;;;;;5114952;28;20485;-67
2022/08/22 09:25:00;;;;;;;60.03;3.87;;;;;;;;;;5067696;27;20449;-68
2022/08/22 09:27:31;;;;;;;59.97;3.90;;;;;;;;;;5116303;28;20444;-68
2022/08/22 09:30:05;;;;;;;60.67;3.87;;;;;;;;;;5115401;28;20442;-68
2022/08/22 09:32:41;;;;;;;59.20;3.73;;;;;;;;;;5115964;28;20449;-67
2022/08/22 09:35:11;;;;;;;58.50;3.87;;;;;;;;;;5116159;28;20441;-67
2022/08/22 09:37:46;;;;;;;59.40;3.73;;;;;;;;;;5116284;28;20533;-67
2022/08/22 09:40:15;;;;;;;60.20;4.10;;;;;;;;;;5115570;28;20437;-67
2022/08/22 09:42:45;;;;;;;59.10;3.70;;;;;;;;;;5116237;28;20583;-67
2022/08/22 09:45:32;;;;;;;60.20;4.10;;;;;;;;;;5116109;28;20448;-68
2022/08/22 09:48:01;;;;;;;60.80;3.80;;;;;;;;;;5116252;28;20453;-68
2022/08/22 09:50:32;;;;;;;58.30;3.47;;;;;;;;;;5116048;28;20453;-67
2022/08/22 09:53:06;;;;;;;59.10;3.60;;;;;;;;;;5115947;28;20474;-68
2022/08/22 09:55:38;;;;;;;59.30;4.10;;;;;;;;;;5116451;28;20544;-68
2022/08/22 09:58:08;;;;;;;58.80;3.40;;;;;;;;;;5115799;28;20448;-68
2022/08/22 10:00:43;;;;;;;59.27;3.77;;;;;;;;;;5115556;28;20537;-68
2022/08/22 10:03:14;;;;;;;58.90;3.20;;;;;;;;;;5115915;28;20489;-68
2022/08/22 10:05:46;;;;;;;59.27;3.50;;;;;;;;;;5115328;28;20441;-68
2022/08/22 10:08:16;;;;;;;60.30;3.60;;;;;;;;;;5114331;28;20449;-68
2022/08/22 10:10:51;;;;;;;59.27;3.40;;;;;;;;;;5112739;28;20446;-68
2022/08/22 10:13:24;;;;;;;58.60;3.50;;;;;;;;;;5112972;28;20467;-68
2022/08/22 10:15:55;;;;;;;58.50;3.20;;;;;;;;;;5113243;28;20968;-68
2022/08/22 10:18:29;;;;;;;58.97;3.50;;;;;;;;;;5113257;28;20450;-68
2022/08/22 10:21:03;;;;;;;58.40;3.00;;;;;;;;;;5112891;28;20494;-68
2022/08/22 10:23:36;;;;;;;57.87;2.53;;;;;;;;;;5113770;28;20525;-67
2022/08/22 10:26:16;;;;;;;57.87;3.00;;;;;;;;;;5114461;28;20502;-66
2022/08/22 10:28:47;;;;;;;61.10;3.17;;;;;;;;;;5114323;28;20457;-66
2022/08/22 10:31:23;;;;;;;57.37;3.00;;;;;;;;;;5115740;28;20452;-67
2022/08/22 10:33:55;;;;;;;57.27;2.47;;;;;;;;;;5115180;28;20450;-67
2022/08/22 10:36:29;;;;;;;57.87;3.00;;;;;;;;;;5114974;28;20452;-66
2022/08/22 10:38:58;;;;;;;57.30;2.70;;;;;;;;;;5115430;28;20449;-67
2022/08/22 10:41:29;;;;;;;57.50;2.93;;;;;;;;;;5115179;28;20446;-66
2022/08/22 10:44:01;;;;;;;57.30;2.83;;;;;;;;;;5115405;28;20451;-66
2022/08/22 10:46:35;;;;;;;57.57;2.77;;;;;;;;;;5115334;28;20608;-67
2022/08/22 10:49:03;;;;;;;56.67;2.60;;;;;;;;;;5113799;28;20433;-67
2022/08/22 10:51:35;;;;;;;57.43;3.30;;;;;;;;;;5114684;28;20464;-66
2022/08/22 10:54:20;;;;;;;56.80;2.77;;;;;;;;;;5114561;28;20449;-67
2022/08/22 10:56:51;;;;;;;57.40;2.30;;;;;;;;;;5113102;28;20524;-67
2022/08/22 10:59:25;;;;;;;57.60;3.20;;;;;;;;;;5112742;28;20441;-66
2022/08/22 11:02:00;;;;;;;56.83;2.57;;;;;;;;;;5114319;28;21019;-67
2022/08/22 11:04:34;;;;;;;57.10;2.87;;;;;;;;;;5116599;28;20449;-68
2022/08/22 11:07:15;;;;;;;56.97;2.50;;;;;;;;;;5115598;28;20445;-68
2022/08/22 11:09:43;;;;;;;56.77;2.30;;;;;;;;;;5116067;28;20476;-67
2022/08/22 11:12:17;;;;;;;57.20;3.20;;;;;;;;;;5115736;28;20553;-68
2022/08/22 11:15:03;;;;;;;58.10;3.83;;;;;;;;;;5115703;28;20976;-67
2022/08/22 11:17:56;;;;;;;56.80;2.20;;;;;;;;;;5116545;28;20445;-67
2022/08/22 11:20:26;;;;;;;56.70;2.43;;;;;;;;;;5114955;28;20541;-67
2022/08/22 11:23:03;;;;;;;57.50;3.10;;;;;;;;;;5118508;28;20464;-68
2022/08/22 11:25:43;;;;;;;57.50;2.60;;;;;;;;;;5120734;28;20893;-67
2022/08/22 11:28:21;;;;;;;56.80;2.30;;;;;;;;;;5120816;28;21003;-68
2022/08/22 11:30:58;;;;;;;56.73;2.50;;;;;;;;;;5120566;28;20442;-68
2022/08/22 11:33:32;;;;;;;56.77;2.43;;;;;;;;;;5119684;28;20489;-68
2022/08/22 11:36:05;;;;;;;56.97;2.80;;;;;;;;;;5121332;28;20925;-68
2022/08/22 11:38:35;;;;;;;57.17;2.97;;;;;;;;;;5119757;28;20872;-67
2022/08/22 11:41:06;;;;;;;56.77;2.53;;;;;;;;;;5119987;28;20529;-67
2022/08/22 11:43:49;;;;;;;57.10;2.60;;;;;;;;;;5119594;28;20884;-67
2022/08/22 11:46:19;;;;;;;56.90;2.50;;;;;;;;;;5118134;28;20603;-69
2022/08/22 11:48:53;;;;;;;56.50;2.07;;;;;;;;;;5115843;28;20521;-68
2022/08/22 11:51:25;;;;;;;56.70;2.30;;;;;;;;;;5116335;28;20455;-68
2022/08/22 11:53:56;;;;;;;57.17;3.10;;;;;;;;;;5115803;28;20477;-68
2022/08/22 11:56:26;;;;;;;56.77;2.40;;;;;;;;;;5116824;28;20446;-67
2022/08/22 11:58:56;;;;;;;56.70;2.43;;;;;;;;;;5115732;28;21245;-67
2022/08/22 12:01:26;;;;;;;57.60;2.80;;;;;;;;;;5116525;28;20531;-68
2022/08/22 12:04:02;;;;;;;56.37;2.40;;;;;;;;;;5116552;28;20444;-68
2022/08/22 12:06:35;;;;;;;57.27;2.63;;;;;;;;;;5118646;28;20630;-67
2022/08/22 12:09:10;;;;;;;57.20;2.50;;;;;;;;;;5117660;28;20487;-68
2022/08/22 12:11:40;;;;;;;57.00;2.90;;;;;;;;;;5118666;28;20471;-67
2022/08/22 12:14:12;;;;;;;58.27;2.60;;;;;;;;;;5115880;28;20572;-68
2022/08/22 12:16:42;;;;;;;56.70;2.60;;;;;;;;;;5115699;28;20445;-67
2022/08/22 12:19:15;;;;;;;56.67;2.53;;;;;;;;;;5115646;28;20454;-68
2022/08/22 12:21:56;;;;;;;57.27;3.00;;;;;;;;;;5117476;28;20553;-68
2022/08/22 12:24:35;;;;;;;56.90;2.50;;;;;;;;;;5118237;28;20451;-68
2022/08/22 12:27:16;;;;;;;56.80;2.23;;;;;;;;;;5116621;28;20472;-68
2022/08/22 12:29:46;;;;;;;56.73;2.40;;;;;;;;;;5115069;28;20454;-68
2022/08/22 12:32:33;;;;;;;58.00;2.70;;;;;;;;;;5114802;28;20489;-68
2022/08/22 12:35:10;;;;;;;56.70;2.90;;;;;;;;;;5114602;28;20453;-68
2022/08/22 12:37:41;;;;;;;58.27;3.03;;;;;;;;;;5117019;28;20489;-68
2022/08/22 12:40:19;;;;;;;57.00;2.63;;;;;;;;;;5116894;28;20506;-68
2022/08/22 12:42:55;;;;;;;57.50;3.20;;;;;;;;;;5116024;28;20469;-68
2022/08/22 12:45:32;;;;;;;56.30;2.57;;;;;;;;;;5118146;28;20448;-68
2022/08/22 12:48:06;;;;;;;56.80;2.80;;;;;;;;;;5115588;28;20498;-68
2022/08/22 12:50:42;;;;;;;56.97;3.00;;;;;;;;;;5114598;28;20481;-68
2022/08/22 12:53:27;;;;;;;56.80;2.27;;;;;;;;;;5114450;28;20489;-69
2022/08/22 12:56:02;;;;;;;57.40;2.80;;;;;;;;;;5101670;27;20449;-68
2022/08/22 12:58:39;;;;;;;57.90;3.10;;;;;;;;;;5115141;28;20884;-67
2022/08/22 13:01:07;;;;;;;57.77;2.80;;;;;;;;;;5115596;28;20508;-68
2022/08/22 13:03:36;;;;;;;57.27;2.40;;;;;;;;;;5117277;28;20533;-67
2022/08/22 13:06:08;;;;;;;58.97;2.80;;;;;;;;;;5116913;28;20445;-67
2022/08/22 13:08:37;;;;;;;58.10;2.97;;;;;;;;;;5116387;28;20441;-67
2022/08/22 13:11:07;;;;;;;58.43;3.23;;;;;;;;;;5115582;28;20445;-68
2022/08/22 13:13:37;;;;;;;58.87;2.90;;;;;;;;;;5115409;28;20481;-68
2022/08/22 13:16:06;;;;;;;57.77;2.67;;;;;;;;;;5115385;28;20469;-69
2022/08/22 13:18:36;;;;;;;57.93;2.80;;;;;;;;;;5114802;28;20533;-67
2022/08/22 13:21:06;;;;;;;58.10;2.83;;;;;;;;;;5115146;28;20541;-68
2022/08/22 13:23:36;;;;;;;59.10;3.17;;;;;;;;;;5114756;28;20442;-68
2022/08/22 13:26:06;;;;;;;58.50;2.63;;;;;;;;;;5115499;28;20442;-67
2022/08/22 13:28:36;;;;;;;58.13;2.70;;;;;;;;;;5115097;28;20450;-67
2022/08/22 13:31:04;;;;;;;58.70;2.80;;;;;;;;;;5115293;28;20531;-67
2022/08/22 13:33:33;;;;;;;58.70;2.70;;;;;;;;;;5114943;28;20481;-67
2022/08/22 13:36:02;;;;;;;59.13;2.87;;;;;;;;;;5115059;28;20948;-67
2022/08/22 13:38:33;;;;;;;58.13;2.93;;;;;;;;;;5116877;28;20806;-67
2022/08/22 13:41:02;;;;;;;57.30;2.47;;;;;;;;;;5116495;28;20536;-68
2022/08/22 13:43:31;;;;;;;57.90;2.77;;;;;;;;;;5116366;28;20489;-67
2022/08/22 13:45:59;;;;;;;57.50;2.70;;;;;;;;;;5114303;28;20441;-67
2022/08/22 13:48:28;;;;;;;57.70;3.20;;;;;;;;;;5115196;28;21017;-67
2022/08/22 13:51:00;;;;;;;58.07;3.00;;;;;;;;;;5114319;28;20442;-68
2022/08/22 13:53:33;;;;;;;57.97;2.70;;;;;;;;;;5115841;28;21040;-67
2022/08/22 13:56:04;;;;;;;59.07;3.10;;;;;;;;;;5115964;28;20468;-66
2022/08/22 13:58:34;;;;;;;57.17;2.37;;;;;;;;;;5115770;28;20449;-67
2022/08/22 14:01:16;;;;;;;58.17;2.83;;;;;;;;;;5115095;28;20450;-68
2022/08/22 14:03:45;;;;;;;58.10;2.90;;;;;;;;;;5114216;28;20951;-68
2022/08/22 14:06:21;;;;;;;57.10;2.40;;;;;;;;;;5114461;28;20494;-68
2022/08/22 14:08:49;;;;;;;57.40;2.60;;;;;;;;;;5114184;28;20448;-68
2022/08/22 14:11:22;;;;;;;57.20;2.80;;;;;;;;;;5114385;28;20998;-67
2022/08/22 14:13:55;;;;;;;57.50;2.97;;;;;;;;;;5115258;28;20481;-68
2022/08/22 14:16:24;;;;;;;57.47;2.83;;;;;;;;;;5115774;28;20878;-67
2022/08/22 14:18:53;;;;;;;57.23;2.50;;;;;;;;;;5115751;28;20453;-68
2022/08/22 14:21:32;;;;;;;57.70;2.73;;;;;;;;;;5115463;28;20449;-67
2022/08/22 14:24:00;;;;;;;56.87;2.27;;;;;;;;;;5115602;28;20964;-68
2022/08/22 14:26:31;;;;;;;57.00;2.53;;;;;;;;;;5116118;28;20518;-68
2022/08/22 14:29:00;;;;;;;57.83;2.60;;;;;;;;;;5116048;28;20548;-67
2022/08/22 14:31:27;;;;;;;57.60;2.60;;;;;;;;;;5116648;28;20499;-66
2022/08/22 14:33:57;;;;;;;57.60;2.60;;;;;;;;;;5114548;28;20996;-67
2022/08/22 14:36:25;;;;;;;58.00;2.80;;;;;;;;;;5114125;28;20448;-67
2022/08/22 14:38:56;;;;;;;57.30;2.30;;;;;;;;;;5114587;28;20448;-68
2022/08/22 14:41:26;;;;;;;57.83;2.70;;;;;;;;;;5113780;28;20568;-66
2022/08/22 14:43:57;;;;;;;58.00;2.63;;;;;;;;;;5115410;28;21046;-68
2022/08/22 14:46:26;;;;;;;58.20;3.00;;;;;;;;;;5114155;28;20445;-67
2022/08/22 14:49:07;;;;;;;57.80;2.83;;;;;;;;;;5113299;28;20476;-68
2022/08/22 14:51:34;;;;;;;58.70;2.97;;;;;;;;;;5114756;28;20457;-68
2022/08/22 14:54:10;;;;;;;57.40;2.80;;;;;;;;;;5114815;28;20572;-67
2022/08/22 14:56:37;;;;;;;57.50;2.60;;;;;;;;;;5114548;28;20456;-68
2022/08/22 14:59:07;;;;;;;57.47;2.50;;;;;;;;;;5113286;28;20449;-67
2022/08/22 15:01:51;;;;;;;57.80;2.77;;;;;;;;;;5113953;28;20572;-68
2022/08/22 15:04:22;;;;;;;58.37;2.90;;;;;;;;;;5114277;28;20433;-68
2022/08/22 15:06:53;;;;;;;58.00;3.00;;;;;;;;;;5114171;28;20441;-66
2022/08/22 15:09:28;;;;;;;57.30;2.43;;;;;;;;;;5113650;28;20484;-68